Time;durP1;ratioP1;P1;durP2;ratioP2;P2;SDS_P1;SDS_P2;PMS_P1;PMS_P2;Temp;Humidity;BMP_temperature;BMP_pressure;BME280_temperature;BME280_humidity;BME280_pressure;Samples;Min_cycle;Max_cycle;Signal;HPM_P1;HPM_P2
2023/07/19 00:01:19;;;;;;;3.08;1.40;;;21.40;81.50;;;;;;5026031;28;20045;-32
2023/07/19 00:03:46;;;;;;;1.67;1.30;;;;;;;;;;5009412;28;20145;-33
2023/07/19 00:06:12;;;;;;;2.03;1.33;;;21.40;73.10;;;;;;5009140;28;20154;-32
2023/07/19 00:08:39;;;;;;;2.35;1.35;;;21.60;81.90;;;;;;5028466;28;20140;-32
2023/07/19 00:11:06;;;;;;;2.85;1.40;;;;;;;;;;5028693;28;20077;-34
2023/07/19 00:13:34;;;;;;;2.72;1.30;;;21.20;65.20;;;;;;5028716;28;20050;-33
2023/07/19 00:16:01;;;;;;;2.03;1.30;;;;;;;;;;5010226;28;20499;-34
2023/07/19 00:18:28;;;;;;;1.55;1.30;;;;;;;;;;5025923;28;20124;-35
2023/07/19 00:20:55;;;;;;;2.22;1.38;;;20.60;81.40;;;;;;5028177;28;20045;-32
2023/07/19 00:23:22;;;;;;;1.88;1.50;;;;;;;;;;5028447;28;20052;-31
2023/07/19 00:25:49;;;;;;;2.85;1.33;;;21.30;81.80;;;;;;5028696;28;20132;-33
2023/07/19 00:28:16;;;;;;;2.67;1.40;;;;;;;;;;5013604;28;20469;-37
2023/07/19 00:30:44;;;;;;;2.42;1.30;;;21.30;65.60;;;;;;5009232;28;20392;-33
2023/07/19 00:33:11;;;;;;;2.58;1.33;;;;;;;;;;5023453;28;20045;-36
2023/07/19 00:35:41;;;;;;;2.78;1.42;;;20.80;75.70;;;;;;5028154;28;20052;-34
2023/07/19 00:38:07;;;;;;;2.63;1.35;;;21.50;72.00;;;;;;5026693;28;20054;-32
2023/07/19 00:40:34;;;;;;;1.88;1.27;;;21.50;81.60;;;;;;5008767;28;20049;-33
2023/07/19 00:43:01;;;;;;;2.25;1.42;;;;;;;;;;5008459;28;20566;-36
2023/07/19 00:45:28;;;;;;;3.15;1.50;;;20.80;81.20;;;;;;5008943;28;20053;-31
2023/07/19 00:47:56;;;;;;;2.35;1.50;;;21.20;65.10;;;;;;5013049;28;20063;-35
2023/07/19 00:50:23;;;;;;;2.03;1.55;;;;;;;;;;5009930;28;20054;-33
2023/07/19 00:52:51;;;;;;;1.92;1.55;;;21.10;65.10;;;;;;5008316;28;20137;-34
2023/07/19 00:55:18;;;;;;;2.20;1.33;;;21.20;70.50;;;;;;5026633;28;20133;-33
2023/07/19 00:57:45;;;;;;;1.55;1.20;;;;;;;;;;5017336;28;20140;-32
2023/07/19 01:00:12;;;;;;;2.22;1.40;;;21.20;69.40;;;;;;5028192;28;20581;-34
2023/07/19 01:02:39;;;;;;;1.85;1.30;;;;;;;;;;5013704;28;20094;-33
2023/07/19 01:05:08;;;;;;;1.77;1.20;;;21.00;65.10;;;;;;5008076;28;20064;-32
2023/07/19 01:07:34;;;;;;;1.45;1.10;;;20.80;75.80;;;;;;5008389;28;20062;-32
2023/07/19 01:10:01;;;;;;;3.15;1.55;;;;;;;;;;5008666;28;20075;-33
2023/07/19 01:12:28;;;;;;;1.77;1.23;;;21.40;79.80;;;;;;5008458;28;20142;-32
2023/07/19 01:14:55;;;;;;;1.75;1.20;;;20.30;69.50;;;;;;5022781;28;20081;-32
2023/07/19 01:17:22;;;;;;;1.77;1.40;;;21.10;65.10;;;;;;5028020;28;20495;-36
2023/07/19 01:19:49;;;;;;;1.60;1.30;;;21.60;81.50;;;;;;5027931;28;20128;-32
2023/07/19 01:22:17;;;;;;;2.30;1.45;;;20.00;79.90;;;;;;5027755;28;20048;-32
2023/07/19 01:24:45;;;;;;;2.25;1.40;;;21.10;65.10;;;;;;5027908;28;20049;-34
2023/07/19 01:27:12;;;;;;;1.75;1.30;;;20.70;81.20;;;;;;5027990;28;20471;-33
2023/07/19 01:29:39;;;;;;;1.73;1.30;;;;;;;;;;5027767;28;20483;-34
2023/07/19 01:32:06;;;;;;;2.28;1.40;;;21.10;65.00;;;;;;5027879;28;20071;-32
2023/07/19 01:34:33;;;;;;;1.63;1.23;;;;;;;;;;5020603;28;20050;-35
2023/07/19 01:37:00;;;;;;;2.13;1.13;;;20.40;81.20;;;;;;5016114;28;20498;-33
2023/07/19 01:39:27;;;;;;;3.38;1.40;;;;;;;;;;5027717;28;20140;-35
2023/07/19 01:41:55;;;;;;;2.53;1.42;;;21.50;67.30;;;;;;5027170;28;20128;-33
2023/07/19 01:44:22;;;;;;;1.73;1.20;;;21.70;81.70;;;;;;5007673;28;20670;-33
2023/07/19 01:46:48;;;;;;;1.65;1.35;;;21.00;75.30;;;;;;5007026;28;20129;-32
2023/07/19 01:49:16;;;;;;;1.42;1.20;;;;;;;;;;5007913;28;20064;-35
2023/07/19 01:51:43;;;;;;;1.60;1.20;;;;;;;;;;5007590;28;20050;-32
2023/07/19 01:54:10;;;;;;;2.33;1.35;;;;;;;;;;5007567;28;20137;-35
2023/07/19 01:56:37;;;;;;;2.63;1.35;;;;;;;;;;5007653;28;20050;-32
2023/07/19 01:59:05;;;;;;;2.78;1.33;;;21.00;70.50;;;;;;5007327;28;20154;-32
2023/07/19 02:01:32;;;;;;;2.15;1.50;;;21.10;70.30;;;;;;5007616;28;20132;-33
2023/07/19 02:03:58;;;;;;;1.48;1.10;;;21.40;81.60;;;;;;5017616;28;20569;-34
2023/07/19 02:06:25;;;;;;;1.58;1.27;;;;;;;;;;5027408;28;20540;-37
2023/07/19 02:08:52;;;;;;;1.73;1.30;;;21.20;78.10;;;;;;5016699;28;20093;-33
2023/07/19 02:11:19;;;;;;;1.80;1.25;;;21.00;81.70;;;;;;5027303;28;20129;-32
2023/07/19 02:13:46;;;;;;;1.42;1.20;;;;;;;;;;5027190;28;20484;-35
2023/07/19 02:16:15;;;;;;;2.65;1.20;;;20.80;81.60;;;;;;5008294;28;20153;-32
2023/07/19 02:18:41;;;;;;;3.65;1.50;;;20.00;80.80;;;;;;5027551;28;20128;-32
2023/07/19 02:21:08;;;;;;;1.90;1.40;;;;;;;;;;5030495;28;20054;-34
2023/07/19 02:23:35;;;;;;;1.77;1.17;;;21.30;82.00;;;;;;5030520;28;20128;-32
2023/07/19 02:26:02;;;;;;;1.85;1.30;;;;;;;;;;5030438;28;20054;-35
2023/07/19 02:28:29;;;;;;;1.55;1.20;;;20.80;82.10;;;;;;5015792;28;20090;-34
2023/07/19 02:30:56;;;;;;;1.77;1.35;;;;;;;;;;5010621;28;20054;-33
2023/07/19 02:33:24;;;;;;;2.25;1.30;;;21.60;81.50;;;;;;5010841;28;20137;-34
2023/07/19 02:35:53;;;;;;;1.70;1.17;;;21.20;81.10;;;;;;5010654;28;20056;-32
2023/07/19 02:38:21;;;;;;;1.80;1.40;;;;;;;;;;5024793;28;20076;-35
2023/07/19 02:40:48;;;;;;;2.00;1.40;;;21.00;64.90;;;;;;5029439;28;20045;-34
2023/07/19 02:43:15;;;;;;;1.60;1.30;;;;;;;;;;5029643;28;20600;-35
2023/07/19 02:45:42;;;;;;;1.80;1.38;;;20.10;81.20;;;;;;5030102;28;20132;-32
2023/07/19 02:48:09;;;;;;;1.23;1.10;;;20.60;67.00;;;;;;5018607;28;20060;-35
2023/07/19 02:50:38;;;;;;;1.63;1.20;;;21.00;64.90;;;;;;5010489;28;20586;-34
2023/07/19 02:53:05;;;;;;;1.63;1.30;;;;;;;;;;5010158;28;20707;-35
2023/07/19 02:55:32;;;;;;;2.08;1.30;;;20.90;81.30;;;;;;5010411;28;20470;-31
2023/07/19 02:57:59;;;;;;;2.22;1.33;;;;;;;;;;5016156;28;20051;-34
2023/07/19 03:00:26;;;;;;;1.63;1.27;;;;;;;;;;5016276;28;20128;-34
2023/07/19 03:02:54;;;;;;;1.50;1.35;;;21.00;64.90;;;;;;5009523;28;20054;-32
2023/07/19 03:05:20;;;;;;;1.48;1.20;;;20.30;73.90;;;;;;5029974;28;20053;-32
2023/07/19 03:07:49;;;;;;;1.85;1.15;;;21.00;64.90;;;;;;5029933;28;20128;-36
2023/07/19 03:10:16;;;;;;;3.63;1.40;;;;;;;;;;5030127;28;20205;-35
2023/07/19 03:12:43;;;;;;;1.80;1.40;;;20.80;75.20;;;;;;5026438;28;20042;-32
2023/07/19 03:15:11;;;;;;;1.80;1.33;;;21.10;79.30;;;;;;5010304;28;20124;-32
2023/07/19 03:17:38;;;;;;;1.20;1.10;;;;;;;;;;5016622;28;20132;-34
2023/07/19 03:20:06;;;;;;;2.17;1.10;;;20.90;81.70;;;;;;5029704;28;20055;-33
2023/07/19 03:22:33;;;;;;;2.20;1.33;;;21.30;81.50;;;;;;5023387;28;20077;-32
2023/07/19 03:25:01;;;;;;;3.58;1.20;;;20.90;64.80;;;;;;5009862;28;20125;-36
2023/07/19 03:27:28;;;;;;;1.60;1.20;;;;;;;;;;5014162;28;20049;-36
2023/07/19 03:29:55;;;;;;;1.50;1.35;;;21.00;81.40;;;;;;5029897;28;20067;-31
2023/07/19 03:32:21;;;;;;;1.80;1.10;;;20.90;81.80;;;;;;5025495;28;20121;-31
2023/07/19 03:34:48;;;;;;;1.40;1.13;;;;;;;;;;5025496;28;20450;-35
2023/07/19 03:37:15;;;;;;;1.70;1.33;;;20.90;81.40;;;;;;5025989;28;20092;-32
2023/07/19 03:39:42;;;;;;;2.22;1.30;;;21.60;82.10;;;;;;5009590;28;20102;-32
2023/07/19 03:42:10;;;;;;;1.95;1.23;;;22.00;73.70;;;;;;5011797;28;20137;-33
2023/07/19 03:44:37;;;;;;;1.77;1.10;;;;;;;;;;5028745;28;20069;-34
2023/07/19 03:47:04;;;;;;;1.70;1.30;;;21.10;81.80;;;;;;5028026;28;20045;-31
2023/07/19 03:49:32;;;;;;;2.13;1.38;;;;;;;;;;5009919;28;20443;-31
2023/07/19 03:51:59;;;;;;;1.60;1.20;;;;;;;;;;5010093;28;20053;-35
2023/07/19 03:54:25;;;;;;;1.70;1.20;;;20.50;82.00;;;;;;5009456;28;20064;-31
2023/07/19 03:56:52;;;;;;;1.90;1.40;;;20.90;82.30;;;;;;5009457;28;20053;-32
2023/07/19 03:59:20;;;;;;;1.20;1.10;;;20.90;64.80;;;;;;5009736;28;20140;-34
2023/07/19 04:01:47;;;;;;;1.95;1.40;;;;;;;;;;5009539;28;20050;-36
2023/07/19 04:04:14;;;;;;;3.25;1.40;;;19.80;80.80;;;;;;5010384;28;20072;-32
2023/07/19 04:06:41;;;;;;;1.77;1.20;;;;;;;;;;5009382;28;20141;-34
2023/07/19 04:09:07;;;;;;;1.60;1.10;;;20.50;75.70;;;;;;5026624;28;20136;-32
2023/07/19 04:11:34;;;;;;;1.60;1.10;;;21.00;81.80;;;;;;5029345;28;20079;-31
2023/07/19 04:14:01;;;;;;;1.40;1.20;;;21.40;78.80;;;;;;5028646;28;20053;-31
2023/07/19 04:16:29;;;;;;;1.55;1.40;;;20.90;64.90;;;;;;5016936;28;20137;-33
2023/07/19 04:18:56;;;;;;;1.27;1.15;;;21.30;70.50;;;;;;5025211;28;20132;-32
2023/07/19 04:21:22;;;;;;;2.17;1.20;;;19.80;71.60;;;;;;5028959;28;20054;-32
2023/07/19 04:23:49;;;;;;;1.30;1.20;;;;;;;;;;5028526;28;20124;-31
2023/07/19 04:26:16;;;;;;;1.50;1.20;;;21.70;79.70;;;;;;5029043;28;20077;-31
2023/07/19 04:28:43;;;;;;;2.00;1.40;;;21.50;82.00;;;;;;5014524;28;20561;-31
2023/07/19 04:31:09;;;;;;;3.20;1.40;;;20.90;81.30;;;;;;5014006;28;20074;-31
2023/07/19 04:33:37;;;;;;;1.50;1.25;;;20.90;64.70;;;;;;5015185;28;20054;-33
2023/07/19 04:36:12;;;;;;;1.95;1.50;;;20.60;70.70;;;;;;5010310;28;20099;-31
2023/07/19 04:38:39;;;;;;;2.78;1.20;;;21.00;70.20;;;;;;5028151;28;20053;-33
2023/07/19 04:41:05;;;;;;;2.47;1.38;;;21.50;76.80;;;;;;5028358;28;20060;-29
2023/07/19 04:43:32;;;;;;;3.88;1.40;;;;;;;;;;5028149;28;20148;-36
2023/07/19 04:45:59;;;;;;;1.60;1.30;;;;;;;;;;5028713;28;20049;-35
2023/07/19 04:48:27;;;;;;;2.13;1.50;;;;;;;;;;5019682;28;20053;-34
2023/07/19 04:50:55;;;;;;;2.13;1.27;;;21.10;81.60;;;;;;5009073;28;20081;-33
2023/07/19 04:53:22;;;;;;;2.45;1.40;;;;;;;;;;5009841;28;20132;-32
2023/07/19 04:55:50;;;;;;;1.73;1.30;;;20.90;64.50;;;;;;5009037;28;20058;-34
2023/07/19 04:58:17;;;;;;;2.30;1.40;;;21.30;72.50;;;;;;5015497;28;20046;-31
2023/07/19 05:00:44;;;;;;;2.13;1.40;;;;;;;;;;5013628;28;20064;-32
2023/07/19 05:03:11;;;;;;;1.83;1.40;;;;;;;;;;5016809;28;20045;-36
2023/07/19 05:05:38;;;;;;;2.08;1.52;;;20.90;81.50;;;;;;5028322;28;20140;-31
2023/07/19 05:08:06;;;;;;;2.80;1.42;;;20.90;64.50;;;;;;5028595;28;20058;-35
2023/07/19 05:10:33;;;;;;;1.75;1.35;;;;;;;;;;5028426;28;20129;-34
2023/07/19 05:13:00;;;;;;;2.88;1.60;;;21.20;81.60;;;;;;5027790;28;20080;-31
2023/07/19 05:15:27;;;;;;;2.58;1.60;;;;;;;;;;5025817;28;20160;-33
2023/07/19 05:17:54;;;;;;;2.03;1.40;;;21.90;81.50;;;;;;5008650;28;20060;-31
2023/07/19 05:20:21;;;;;;;2.72;1.80;;;21.80;81.90;;;;;;5008762;28;20132;-32
2023/07/19 05:22:48;;;;;;;3.35;2.22;;;;;;;;;;5008196;28;20128;-36
2023/07/19 05:25:16;;;;;;;3.38;1.60;;;20.90;64.40;;;;;;5008241;28;20129;-33
2023/07/19 05:27:43;;;;;;;1.73;1.30;;;;;;;;;;5014665;28;20133;-34
2023/07/19 05:30:10;;;;;;;2.17;1.40;;;20.90;64.40;;;;;;5028049;28;20136;-34
2023/07/19 05:32:37;;;;;;;1.67;1.48;;;;;;;;;;5027884;28;20084;-32
2023/07/19 05:35:05;;;;;;;2.65;1.40;;;21.20;67.50;;;;;;5028003;28;20052;-32
2023/07/19 05:37:32;;;;;;;2.25;1.50;;;;;;;;;;5026408;28;20041;-37
2023/07/19 05:39:59;;;;;;;2.00;1.40;;;20.40;73.80;;;;;;5016945;28;20152;-32
2023/07/19 05:42:27;;;;;;;1.92;1.65;;;21.40;65.90;;;;;;5007641;28;20046;-33
2023/07/19 05:44:53;;;;;;;3.20;1.58;;;21.70;81.40;;;;;;5007851;28;20120;-32
2023/07/19 05:47:21;;;;;;;2.35;1.58;;;;;;;;;;5014053;28;20045;-34
2023/07/19 05:49:47;;;;;;;2.75;1.50;;;21.00;81.20;;;;;;5025255;28;20148;-32
2023/07/19 05:52:14;;;;;;;2.78;1.70;;;;;;;;;;5019351;28;20137;-34
2023/07/19 05:54:41;;;;;;;1.92;1.60;;;22.00;75.60;;;;;;5011560;28;20045;-31
2023/07/19 05:57:08;;;;;;;4.13;2.00;;;;;;;;;;5023844;28;20056;-35
2023/07/19 05:59:36;;;;;;;4.25;2.20;;;21.10;76.90;;;;;;5025794;28;20137;-31
2023/07/19 06:02:05;;;;;;;2.45;1.83;;;20.60;73.50;;;;;;5011361;28;20124;-31
2023/07/19 06:04:32;;;;;;;3.35;1.95;;;;;;;;;;5010918;28;20428;-33
2023/07/19 06:06:59;;;;;;;3.83;1.88;;;20.70;75.10;;;;;;5011046;28;20069;-36
2023/07/19 06:09:26;;;;;;;2.45;1.80;;;;;;;;;;5010968;28;20410;-35
2023/07/19 06:11:56;;;;;;;3.90;1.85;;;;;;;;;;5011168;28;20475;-36
2023/07/19 06:14:23;;;;;;;2.92;1.98;;;21.50;69.00;;;;;;5010481;28;20567;-32
2023/07/19 06:16:51;;;;;;;2.88;1.77;;;20.70;81.30;;;;;;5010766;28;20137;-31
2023/07/19 06:19:19;;;;;;;3.30;1.70;;;21.60;69.40;;;;;;5010766;28;20425;-31
2023/07/19 06:21:46;;;;;;;2.40;1.65;;;;;;;;;;5010814;28;20042;-30
2023/07/19 06:24:13;;;;;;;2.55;1.70;;;;;;;;;;5018597;28;20391;-32
2023/07/19 06:26:40;;;;;;;2.75;1.60;;;21.20;81.60;;;;;;5011095;28;20099;-31
2023/07/19 06:29:07;;;;;;;3.88;1.65;;;21.90;81.90;;;;;;5010630;28;20145;-32
2023/07/19 06:31:34;;;;;;;2.88;1.83;;;;;;;;;;5020721;28;20124;-34
2023/07/19 06:34:02;;;;;;;2.75;1.73;;;20.90;64.50;;;;;;5022560;28;20048;-34
2023/07/19 06:36:28;;;;;;;3.67;1.65;;;20.80;76.40;;;;;;5019038;28;20550;-32
2023/07/19 06:38:55;;;;;;;2.83;1.60;;;21.70;81.60;;;;;;5021040;28;20122;-31
2023/07/19 06:41:22;;;;;;;2.13;1.50;;;;;;;;;;5019730;28;20395;-35
2023/07/19 06:43:49;;;;;;;2.33;1.50;;;20.90;81.30;;;;;;5013152;28;20138;-31
2023/07/19 06:46:16;;;;;;;3.30;1.73;;;;;;;;;;5021809;28;20593;-34
2023/07/19 06:48:43;;;;;;;2.22;1.70;;;20.40;80.50;;;;;;5028755;28;20375;-31
2023/07/19 06:51:11;;;;;;;3.22;1.67;;;22.00;81.60;;;;;;5030046;28;20395;-31
2023/07/19 06:53:38;;;;;;;3.38;1.65;;;20.70;80.90;;;;;;5030507;28;20133;-32
2023/07/19 06:56:05;;;;;;;1.85;1.65;;;;;;;;;;5023458;28;20410;-35
2023/07/19 06:58:32;;;;;;;3.60;1.67;;;21.10;81.00;;;;;;5024682;28;20045;-31
2023/07/19 07:00:59;;;;;;;2.75;1.73;;;;;;;;;;5029056;28;20137;-34
2023/07/19 07:03:26;;;;;;;1.88;1.40;;;20.20;80.60;;;;;;5009795;28;20135;-31
2023/07/19 07:05:53;;;;;;;2.45;1.65;;;19.90;68.70;;;;;;5010290;28;20050;-31
2023/07/19 07:08:21;;;;;;;1.90;1.60;;;20.30;80.50;;;;;;5010330;28;20128;-32
2023/07/19 07:10:48;;;;;;;4.80;1.58;;;;;;;;;;5010472;28;20223;-32
2023/07/19 07:13:15;;;;;;;2.25;1.60;;;;;;;;;;5016774;28;20128;-31
2023/07/19 07:15:42;;;;;;;2.30;1.52;;;21.30;81.50;;;;;;5024523;28;20057;-31
2023/07/19 07:18:09;;;;;;;2.17;1.45;;;;;;;;;;5030049;28;20128;-35
2023/07/19 07:20:36;;;;;;;2.00;1.70;;;20.90;80.20;;;;;;5029960;28;20067;-31
2023/07/19 07:23:03;;;;;;;2.20;1.40;;;21.00;81.20;;;;;;5029513;28;20598;-31
2023/07/19 07:25:31;;;;;;;3.33;1.58;;;20.80;70.50;;;;;;5030020;28;20160;-33
2023/07/19 07:27:59;;;;;;;3.35;1.65;;;;;;;;;;5022241;28;20565;-34
2023/07/19 07:30:26;;;;;;;4.57;1.40;;;19.80;69.50;;;;;;5010073;28;20058;-32
2023/07/19 07:32:53;;;;;;;2.20;1.50;;;21.30;80.90;;;;;;5014704;28;20046;-31
2023/07/19 07:35:20;;;;;;;1.45;1.35;;;;;;;;;;5009517;28;20057;-34
2023/07/19 07:37:47;;;;;;;2.30;1.50;;;21.20;66.90;;;;;;5014759;28;20053;-32
2023/07/19 07:40:14;;;;;;;4.32;1.67;;;;;;;;;;5019612;28;20132;-34
2023/07/19 07:42:42;;;;;;;2.25;1.40;;;21.20;81.10;;;;;;5015993;28;20096;-31
2023/07/19 07:45:09;;;;;;;2.33;1.50;;;21.70;64.70;;;;;;5014744;28;20925;-32
2023/07/19 07:47:36;;;;;;;1.63;1.40;;;;;;;;;;5009449;28;20128;-34
2023/07/19 07:50:04;;;;;;;3.05;1.70;;;21.40;81.20;;;;;;5010817;28;20084;-31
2023/07/19 07:52:31;;;;;;;1.73;1.50;;;20.90;74.40;;;;;;5018079;28;20050;-32
2023/07/19 07:54:58;;;;;;;3.08;1.35;;;;;;;;;;5027825;28;20042;-33
2023/07/19 07:57:25;;;;;;;4.28;1.50;;;21.60;71.40;;;;;;5022687;28;20049;-32
2023/07/19 07:59:53;;;;;;;1.60;1.20;;;20.70;64.10;;;;;;5010667;28;20650;-31
2023/07/19 08:02:20;;;;;;;1.98;1.60;;;;;;;;;;5014864;28;20137;-33
2023/07/19 08:04:48;;;;;;;1.80;1.33;;;20.80;71.30;;;;;;5025321;28;20042;-33
2023/07/19 08:07:15;;;;;;;3.80;1.73;;;;;;;;;;5029094;28;20053;-33
2023/07/19 08:09:42;;;;;;;2.30;1.52;;;20.20;80.80;;;;;;5028213;28;20057;-31
2023/07/19 08:12:09;;;;;;;1.67;1.40;;;;;;;;;;5019864;28;20054;-33
2023/07/19 08:14:36;;;;;;;2.47;1.40;;;20.70;80.70;;;;;;5019681;28;20490;-31
2023/07/19 08:17:05;;;;;;;2.15;1.60;;;20.50;63.90;;;;;;5028824;28;20077;-35
2023/07/19 08:19:32;;;;;;;3.05;1.42;;;21.10;81.50;;;;;;5029155;28;20136;-31
2023/07/19 08:22:03;;;;;;;1.90;1.42;;;20.80;80.60;;;;;;5024672;28;20054;-32
2023/07/19 08:24:29;;;;;;;2.92;1.50;;;20.90;77.70;;;;;;5017992;28;20050;-32
2023/07/19 08:26:56;;;;;;;2.55;1.45;;;;;;;;;;5009197;28;20050;-33
2023/07/19 08:29:23;;;;;;;2.50;1.60;;;21.00;64.20;;;;;;5026537;28;20137;-37
2023/07/19 08:31:50;;;;;;;2.95;1.38;;;22.10;81.30;;;;;;5019119;28;20045;-31
2023/07/19 08:34:19;;;;;;;1.60;1.35;;;21.80;76.30;;;;;;5014237;28;20044;-31
2023/07/19 08:36:47;;;;;;;1.55;1.10;;;;;;;;;;5028137;28;20084;-33
2023/07/19 08:39:14;;;;;;;2.05;1.42;;;21.40;75.00;;;;;;5028536;28;20045;-35
2023/07/19 08:41:41;;;;;;;1.63;1.27;;;;;;;;;;5027915;28;20053;-32
2023/07/19 08:44:08;;;;;;;2.22;1.33;;;21.30;75.80;;;;;;5015853;28;20155;-37
2023/07/19 08:46:35;;;;;;;5.47;1.40;;;21.00;80.60;;;;;;5026292;28;20125;-32
2023/07/19 08:49:02;;;;;;;4.05;1.38;;;20.90;80.50;;;;;;5019871;28;20596;-32
2023/07/19 08:51:30;;;;;;;1.70;1.23;;;20.90;80.90;;;;;;5018639;28;20129;-32
2023/07/19 08:53:58;;;;;;;1.98;1.20;;;;;;;;;;5017162;28;20050;-35
2023/07/19 08:56:25;;;;;;;2.17;1.35;;;20.20;77.80;;;;;;5018571;28;20053;-33
2023/07/19 08:58:51;;;;;;;1.63;1.27;;;21.40;80.90;;;;;;5019042;28;20129;-32
2023/07/19 09:01:18;;;;;;;1.65;1.33;;;;;;;;;;5017419;28;20050;-36
2023/07/19 09:03:45;;;;;;;2.58;1.33;;;20.90;80.80;;;;;;5017925;28;20045;-31
2023/07/19 09:06:12;;;;;;;2.45;1.27;;;21.00;81.00;;;;;;5019542;28;20418;-31
2023/07/19 09:08:40;;;;;;;1.40;1.10;;;21.00;64.10;;;;;;5020423;28;20053;-35
2023/07/19 09:11:07;;;;;;;2.42;1.58;;;20.90;71.90;;;;;;5018148;28;20056;-33
2023/07/19 09:13:36;;;;;;;3.00;1.40;;;22.00;81.30;;;;;;5022439;28;20049;-32
2023/07/19 09:16:03;;;;;;;3.33;1.48;;;21.20;76.10;;;;;;5018779;28;20136;-33
2023/07/19 09:18:35;;;;;;;2.70;1.40;;;21.70;81.20;;;;;;5018506;28;20130;-32
2023/07/19 09:21:03;;;;;;;2.35;1.30;;;22.10;80.80;;;;;;5018672;28;20136;-32
2023/07/19 09:23:33;;;;;;;2.35;1.40;;;21.10;64.10;;;;;;5017144;28;20050;-37
2023/07/19 09:26:03;;;;;;;2.35;1.38;;;21.10;64.20;;;;;;5023804;28;20055;-36
2023/07/19 09:28:30;;;;;;;2.08;1.30;;;21.20;69.20;;;;;;5018007;28;20122;-38
2023/07/19 09:30:59;;;;;;;2.60;1.35;;;21.10;64.10;;;;;;5015122;28;20130;-35
2023/07/19 09:33:26;;;;;;;1.63;1.20;;;20.80;80.30;;;;;;5016942;28;20045;-39
2023/07/19 09:35:56;;;;;;;1.48;1.20;;;21.10;64.10;;;;;;5014654;28;20057;-35
2023/07/19 09:38:23;;;;;;;3.08;1.33;;;;;;;;;;5016057;28;20049;-35
2023/07/19 09:40:51;;;;;;;2.35;1.30;;;21.50;80.70;;;;;;5016287;28;20140;-37
2023/07/19 09:43:20;;;;;;;1.92;1.30;;;21.60;64.40;;;;;;5015667;28;20042;-34
2023/07/19 09:45:47;;;;;;;2.85;1.40;;;21.50;80.80;;;;;;5018765;28;20053;-37
2023/07/19 09:48:14;;;;;;;1.77;1.20;;;21.60;71.60;;;;;;5018545;28;20081;-40
2023/07/19 09:50:41;;;;;;;3.35;1.80;;;;;;;;;;5008041;28;20056;-36
2023/07/19 09:53:09;;;;;;;5.65;1.40;;;21.20;64.10;;;;;;5006843;28;20487;-34
2023/07/19 09:55:36;;;;;;;2.47;1.20;;;;;;;;;;5007569;28;20129;-34
2023/07/19 09:58:03;;;;;;;1.42;1.17;;;;;;;;;;5018488;28;20132;-35
2023/07/19 10:00:31;;;;;;;2.75;1.25;;;21.20;64.20;;;;;;5022800;28;20129;-36
2023/07/19 10:02:59;;;;;;;2.42;1.50;;;21.20;64.10;;;;;;5017188;28;20057;-34
2023/07/19 10:05:28;;;;;;;1.88;1.30;;;21.20;64.10;;;;;;5010136;28;20483;-38
2023/07/19 10:07:54;;;;;;;1.40;1.20;;;22.40;70.70;;;;;;5007851;28;20050;-36
2023/07/19 10:10:21;;;;;;;2.30;1.25;;;21.10;68.80;;;;;;5023843;28;20475;-36
2023/07/19 10:12:48;;;;;;;1.80;1.20;;;;;;;;;;5017764;28;20473;-35
2023/07/19 10:15:16;;;;;;;5.00;1.30;;;21.50;79.10;;;;;;5015172;28;20053;-40
2023/07/19 10:17:55;;;;;;;1.92;1.30;;;21.50;71.60;;;;;;5011410;28;20095;-37
2023/07/19 10:20:23;;;;;;;2.40;1.30;;;21.30;77.50;;;;;;5021893;28;20054;-38
2023/07/19 10:22:52;;;;;;;2.25;1.13;;;21.40;80.30;;;;;;5009100;28;20085;-36
2023/07/19 10:25:21;;;;;;;2.10;1.20;;;21.40;63.90;;;;;;5009330;28;20049;-38
2023/07/19 10:27:55;;;;;;;1.85;1.10;;;21.50;80.10;;;;;;5009681;28;20064;-39
2023/07/19 10:30:22;;;;;;;1.88;1.00;;;;;;;;;;5007693;28;20054;-38
2023/07/19 10:32:51;;;;;;;2.35;1.27;;;21.90;71.20;;;;;;5006735;28;20054;-37
2023/07/19 10:35:35;;;;;;;1.10;1.00;;;21.40;71.30;;;;;;5007031;28;20045;-37
2023/07/19 10:38:02;;;;;;;1.70;1.10;;;;;;;;;;5015057;28;20053;-38
2023/07/19 10:40:29;;;;;;;1.90;1.30;;;;;;;;;;5021240;28;20700;-36
2023/07/19 10:42:56;;;;;;;2.22;1.23;;;;;;;;;;5013493;28;20477;-39
2023/07/19 10:45:25;;;;;;;2.88;1.00;;;;;;;;;;5018049;28;20085;-37
2023/07/19 10:47:53;;;;;;;1.75;1.05;;;21.50;68.60;;;;;;5028915;28;20056;-37
2023/07/19 10:50:24;;;;;;;1.70;1.00;;;21.70;63.20;;;;;;5029380;28;20144;-34
2023/07/19 10:52:51;;;;;;;2.28;1.02;;;21.70;79.30;;;;;;5029459;28;20144;-37
2023/07/19 10:55:18;;;;;;;1.63;1.05;;;;;;;;;;5030919;28;20056;-37
2023/07/19 10:57:45;;;;;;;5.47;1.58;;;21.40;69.40;;;;;;5021862;28;20050;-39
2023/07/19 11:00:13;;;;;;;6.13;1.40;;;21.30;79.00;;;;;;5010737;28;20690;-41
2023/07/19 11:02:40;;;;;;;2.95;1.20;;;;;;;;;;5010296;28;20848;-35
2023/07/19 11:05:08;;;;;;;3.75;1.92;;;21.70;79.90;;;;;;5015769;28;20491;-38
2023/07/19 11:07:35;;;;;;;3.58;1.23;;;22.30;79.80;;;;;;5029534;28;20417;-39
2023/07/19 11:10:02;;;;;;;4.60;1.30;;;;;;;;;;5029970;28;20124;-37
2023/07/19 11:12:30;;;;;;;5.32;1.42;;;;;;;;;;5029594;28;20125;-37
2023/07/19 11:14:58;;;;;;;5.22;1.33;;;22.00;62.90;;;;;;5030067;28;20046;-37
2023/07/19 11:17:25;;;;;;;3.42;1.60;;;;;;;;;;5014930;28;20053;-36
2023/07/19 11:19:53;;;;;;;2.78;1.33;;;;;;;;;;5020842;28;20125;-34
2023/07/19 11:22:23;;;;;;;3.85;1.30;;;22.00;62.90;;;;;;5019787;28;20392;-36
2023/07/19 11:24:51;;;;;;;2.70;1.35;;;;;;;;;;5019375;28;20053;-37
2023/07/19 11:27:18;;;;;;;3.88;1.40;;;;;;;;;;5018605;28;20477;-37
2023/07/19 11:29:49;;;;;;;2.10;1.17;;;21.60;76.80;;;;;;5017887;28;20072;-41
2023/07/19 11:32:20;;;;;;;4.18;1.40;;;21.90;62.90;;;;;;5019411;28;20477;-39
2023/07/19 11:34:48;;;;;;;2.63;1.30;;;21.90;62.90;;;;;;5020494;28;20044;-35
2023/07/19 11:37:19;;;;;;;2.53;1.20;;;21.50;79.10;;;;;;5018191;28;20068;-39
2023/07/19 11:39:47;;;;;;;3.00;1.30;;;22.70;73.00;;;;;;5018181;28;20133;-38
2023/07/19 11:42:14;;;;;;;2.90;1.30;;;21.60;79.00;;;;;;5019732;28;20148;-40
2023/07/19 11:44:44;;;;;;;2.15;1.38;;;21.80;62.90;;;;;;5019594;28;20050;-37
2023/07/19 11:47:11;;;;;;;1.73;1.10;;;;;;;;;;5019160;28;20133;-37
2023/07/19 11:49:38;;;;;;;3.17;1.17;;;21.60;70.30;;;;;;5016959;28;20056;-37
2023/07/19 11:52:06;;;;;;;1.75;1.10;;;21.80;79.40;;;;;;5029920;28;20124;-40
2023/07/19 11:54:32;;;;;;;1.65;1.10;;;21.40;79.20;;;;;;5029240;28;20132;-40
2023/07/19 11:57:00;;;;;;;2.05;1.27;;;21.60;79.50;;;;;;5029156;28;20050;-39
2023/07/19 11:59:27;;;;;;;1.40;1.05;;;20.70;66.30;;;;;;5029479;28;20124;-39
2023/07/19 12:01:54;;;;;;;2.92;1.30;;;;;;;;;;5029314;28;20561;-36
2023/07/19 12:04:21;;;;;;;1.83;1.25;;;;;;;;;;5029332;28;20053;-36
2023/07/19 12:06:48;;;;;;;2.10;1.25;;;21.80;68.20;;;;;;5029358;28;20132;-40
2023/07/19 12:09:15;;;;;;;1.95;1.17;;;22.80;80.00;;;;;;5027051;28;20528;-40
2023/07/19 12:11:42;;;;;;;1.98;1.40;;;21.60;79.30;;;;;;5009436;28;20136;-40
2023/07/19 12:14:11;;;;;;;1.30;0.93;;;21.60;63.00;;;;;;5009338;28;20470;-37
2023/07/19 12:16:38;;;;;;;1.85;1.02;;;;;;;;;;5009162;28;20057;-40
2023/07/19 12:19:05;;;;;;;2.15;1.25;;;21.40;79.10;;;;;;5009596;28;20058;-39
2023/07/19 12:21:32;;;;;;;2.75;1.30;;;;;;;;;;5009379;28;20121;-40
2023/07/19 12:23:59;;;;;;;2.33;1.30;;;22.00;72.00;;;;;;5009150;28;20408;-38
2023/07/19 12:26:26;;;;;;;1.95;1.10;;;22.80;79.80;;;;;;5009172;28;20042;-40
2023/07/19 12:28:53;;;;;;;2.42;1.10;;;21.40;69.90;;;;;;5009194;28;20132;-40
2023/07/19 12:31:21;;;;;;;1.30;1.00;;;21.90;76.20;;;;;;5009623;28;20410;-40
2023/07/19 12:33:49;;;;;;;2.10;1.30;;;21.40;71.00;;;;;;5008833;28;20566;-40
2023/07/19 12:36:16;;;;;;;2.25;1.13;;;21.70;69.30;;;;;;5012417;28;20095;-40
2023/07/19 12:38:43;;;;;;;2.28;1.33;;;;;;;;;;5028237;28;20573;-39
2023/07/19 12:41:09;;;;;;;2.35;1.10;;;21.60;79.20;;;;;;5017055;28;20512;-38
2023/07/19 12:43:37;;;;;;;1.92;1.23;;;;;;;;;;5009264;28;20158;-37
2023/07/19 12:46:03;;;;;;;1.95;1.20;;;21.60;75.30;;;;;;5008917;28;20502;-38
2023/07/19 12:48:34;;;;;;;1.60;1.10;;;21.50;63.10;;;;;;5008981;28;20160;-37
2023/07/19 12:51:04;;;;;;;1.52;1.00;;;21.40;80.10;;;;;;5008931;28;20073;-40
2023/07/19 12:53:30;;;;;;;2.25;1.33;;;21.80;79.60;;;;;;5008875;28;20054;-40
2023/07/19 12:55:57;;;;;;;1.20;1.00;;;;;;;;;;5008683;28;20129;-38
2023/07/19 12:58:24;;;;;;;1.88;1.33;;;21.90;80.60;;;;;;5019332;28;20133;-38
2023/07/19 13:00:51;;;;;;;2.90;1.20;;;21.60;79.90;;;;;;5018026;28;20131;-40
2023/07/19 13:03:18;;;;;;;2.20;1.15;;;;;;;;;;5016396;28;20056;-37
2023/07/19 13:05:46;;;;;;;2.55;1.25;;;21.40;63.30;;;;;;5018643;28;20041;-39
2023/07/19 13:08:14;;;;;;;1.50;1.10;;;;;;;;;;5018743;28;20045;-40
2023/07/19 13:10:41;;;;;;;2.47;1.10;;;;;;;;;;5016997;28;20057;-37
2023/07/19 13:13:08;;;;;;;1.40;1.02;;;;;;;;;;5018265;28;20045;-37
2023/07/19 13:15:35;;;;;;;1.63;1.20;;;21.10;79.10;;;;;;5017243;28;20085;-38
2023/07/19 13:18:02;;;;;;;2.00;1.20;;;;;;;;;;5017170;28;20061;-35
2023/07/19 13:20:29;;;;;;;3.05;1.52;;;;;;;;;;5017795;28;20060;-39
2023/07/19 13:22:57;;;;;;;1.60;1.10;;;21.40;63.40;;;;;;5018504;28;20053;-36